Santa Maria Da Serra, Brazil
Current Conditions -  °F | °C
As of 6:00 AM on Monday 22 Dec 2014 (Local Time) from SBBU Reporting Station
Overcast Overcast  
Wind Chill: 73°   Ceiling: 500
Heat Index: 73°   Visibility: 6mi
Dew Point: 73°   Wind: 13mph
Humidity: 100%   Direction: 360°N
Pressure: 29.91"   Gusts: NA
Location:  22.57°S, 48.16°W
Report Text: SBBU 220800Z 36011KT 9999 BKN005 BKN010 OVC080 23/23 Q1013
Loading
Personal Weather Stations






























Interactive Weather Map New forecast layout! Learn more

10-Day Weather Forecast

Advertisements
Track Severe Weather on mobile